createdAt,value
2019-01-09T00:01:27.830Z,97.30
2019-01-09T00:03:56.598Z,97.50
2019-01-09T00:06:25.281Z,97.60
2019-01-09T00:08:53.997Z,97.70
2019-01-09T00:11:22.733Z,97.70
2019-01-09T00:13:51.438Z,97.70
2019-01-09T00:16:20.161Z,97.70
2019-01-09T00:18:48.814Z,97.70
2019-01-09T00:21:17.494Z,97.50
2019-01-09T00:23:46.214Z,97.60
2019-01-09T00:26:14.896Z,97.40
2019-01-09T00:28:43.558Z,97.60
2019-01-09T00:31:12.520Z,97.60
2019-01-09T00:33:41.315Z,98.00
2019-01-09T00:36:10.034Z,97.40
2019-01-09T00:38:40.604Z,97.10
2019-01-09T00:41:09.446Z,96.90
2019-01-09T00:43:38.502Z,96.90
2019-01-09T00:46:07.510Z,96.90
2019-01-09T00:48:36.225Z,96.90
2019-01-09T00:51:05.174Z,97.00
2019-01-09T00:53:33.922Z,97.10
2019-01-09T00:56:02.588Z,97.20
2019-01-09T00:58:31.266Z,96.90
2019-01-09T01:00:59.981Z,96.90
2019-01-09T01:04:20.545Z,97.00
2019-01-09T01:07:17.510Z,97.20
2019-01-09T01:10:36.539Z,97.30
2019-01-09T01:13:42.177Z,97.40
2019-01-09T01:16:51.191Z,97.60
2019-01-09T01:20:01.385Z,97.50
2019-01-09T01:23:19.765Z,97.50
2019-01-09T01:26:15.706Z,97.50
2019-01-09T01:29:24.854Z,97.50
2019-01-09T01:32:28.233Z,97.50
2019-01-09T01:35:38.155Z,97.70
2019-01-09T01:39:00.957Z,98.10
2019-01-09T01:42:25.953Z,97.70
2019-01-09T01:45:16.359Z,97.80
2019-01-09T01:48:50.485Z,97.70
2019-01-09T01:51:31.948Z,97.70
2019-01-09T01:54:49.613Z,97.80
2019-01-09T01:57:53.990Z,97.80
2019-01-09T02:00:42.273Z,97.70
2019-01-09T02:03:32.726Z,97.70
2019-01-09T02:06:44.185Z,97.80
2019-01-09T02:09:35.597Z,97.90
2019-01-09T02:12:25.865Z,98.00
2019-01-09T02:15:34.626Z,98.30
2019-01-09T02:18:09.373Z,98.20
2019-01-09T02:21:08.392Z,98.30
2019-01-09T02:24:15.661Z,98.30
2019-01-09T02:27:10.810Z,98.20
2019-01-09T02:30:20.083Z,97.90
2019-01-09T02:32:49.079Z,97.80
2019-01-09T02:35:17.792Z,97.70
2019-01-09T02:37:46.485Z,97.70
2019-01-09T02:40:15.185Z,97.40
2019-01-09T02:42:43.948Z,97.20
2019-01-09T02:45:12.638Z,97.20
2019-01-09T02:47:41.307Z,96.80
2019-01-09T02:50:10.021Z,96.40
2019-01-09T02:52:38.682Z,96.20
2019-01-09T02:55:07.798Z,95.90
2019-01-09T02:57:36.474Z,95.80
2019-01-09T03:00:07.790Z,95.60
2019-01-09T03:02:36.519Z,95.70
2019-01-09T03:05:05.330Z,95.80
2019-01-09T03:07:33.958Z,95.90
2019-01-09T03:10:02.678Z,96.00
2019-01-09T03:12:31.610Z,96.20
2019-01-09T03:15:00.461Z,96.20
2019-01-09T03:17:29.114Z,96.00
2019-01-09T03:19:57.793Z,95.80
2019-01-09T03:22:26.517Z,96.00
2019-01-09T03:24:55.165Z,95.60
2019-01-09T03:27:24.167Z,95.70
2019-01-09T03:29:53.415Z,95.50
2019-01-09T03:32:22.335Z,95.60
2019-01-09T03:34:51.073Z,95.70
2019-01-09T03:37:19.757Z,95.70
2019-01-09T03:39:48.431Z,95.60
2019-01-09T03:42:17.179Z,95.50
2019-01-09T03:44:45.887Z,95.50
2019-01-09T03:47:14.897Z,95.30
2019-01-09T03:49:43.590Z,95.50
2019-01-09T03:52:12.270Z,95.50
2019-01-09T03:54:40.869Z,95.20
2019-01-09T03:57:09.514Z,95.40
2019-01-09T03:59:38.220Z,95.20
2019-01-09T04:02:06.878Z,95.10
2019-01-09T04:04:35.593Z,95.10
2019-01-09T04:07:04.569Z,95.20
2019-01-09T04:09:33.262Z,95.10
2019-01-09T04:12:01.956Z,95.30
2019-01-09T04:14:30.829Z,95.20
2019-01-09T04:16:59.790Z,95.40
2019-01-09T04:19:28.506Z,95.10
2019-01-09T04:21:57.481Z,95.20
2019-01-09T04:24:26.201Z,95.20
2019-01-09T04:26:54.882Z,95.20
2019-01-09T04:29:23.895Z,95.10
2019-01-09T04:31:52.790Z,95.10
2019-01-09T04:34:21.446Z,95.10
2019-01-09T04:36:51.743Z,95.30
2019-01-09T04:39:20.746Z,95.10
2019-01-09T04:41:49.461Z,95.00
2019-01-09T04:44:18.121Z,95.10
2019-01-09T04:46:47.063Z,95.20
2019-01-09T04:49:15.709Z,95.20
2019-01-09T04:51:44.380Z,95.30
2019-01-09T04:54:13.095Z,95.40
2019-01-09T04:56:42.074Z,95.40
2019-01-09T04:59:10.739Z,95.60
2019-01-09T05:01:39.459Z,95.50
2019-01-09T05:04:08.113Z,95.60
2019-01-09T05:06:37.081Z,95.50
2019-01-09T05:09:06.763Z,95.60
2019-01-09T05:11:35.397Z,95.70
2019-01-09T05:14:04.034Z,95.70
2019-01-09T05:16:32.666Z,95.70
2019-01-09T05:19:01.377Z,95.70
2019-01-09T05:21:30.031Z,95.70
2019-01-09T05:23:58.899Z,95.60
2019-01-09T05:26:27.630Z,95.80
2019-01-09T05:28:56.330Z,95.70
2019-01-09T05:31:25.297Z,95.60
2019-01-09T05:33:54.311Z,95.70
2019-01-09T05:36:22.996Z,95.60
2019-01-09T05:38:51.692Z,95.40
2019-01-09T05:41:20.338Z,95.40
2019-01-09T05:43:49.058Z,95.50
2019-01-09T05:46:17.708Z,95.40
2019-01-09T05:48:46.394Z,95.10
2019-01-09T05:51:15.106Z,95.10
2019-01-09T05:53:43.771Z,94.90
2019-01-09T05:56:12.628Z,94.80
2019-01-09T05:58:41.347Z,94.70
2019-01-09T06:01:10.026Z,94.70
2019-01-09T06:03:38.793Z,94.50
2019-01-09T06:06:08.150Z,94.40
2019-01-09T06:08:37.122Z,94.00
2019-01-09T06:11:05.810Z,93.80
2019-01-09T06:13:34.474Z,93.30
2019-01-09T06:16:03.202Z,93.00
2019-01-09T06:18:31.859Z,92.90
2019-01-09T06:21:00.574Z,92.90
2019-01-09T06:23:29.226Z,92.90
2019-01-09T06:25:57.910Z,92.60
2019-01-09T06:28:26.623Z,92.40
2019-01-09T06:30:55.277Z,92.50
2019-01-09T06:33:23.983Z,92.40
2019-01-09T06:35:52.674Z,92.20
2019-01-09T06:38:21.462Z,92.00
2019-01-09T06:40:50.168Z,91.60
2019-01-09T06:43:18.882Z,91.90
2019-01-09T06:45:48.054Z,91.60
2019-01-09T06:48:16.716Z,91.40
2019-01-09T06:50:45.379Z,91.50
2019-01-09T06:53:14.356Z,91.60
2019-01-09T06:55:43.066Z,91.30
2019-01-09T06:58:12.046Z,91.60
2019-01-09T07:00:40.738Z,91.40
2019-01-09T07:03:09.417Z,91.30
2019-01-09T07:05:38.134Z,91.50
2019-01-09T07:08:06.795Z,91.60
2019-01-09T07:10:35.507Z,91.70
2019-01-09T07:13:04.174Z,91.70
2019-01-09T07:15:33.051Z,91.90
2019-01-09T07:18:01.760Z,91.90
2019-01-09T07:20:30.417Z,91.80
2019-01-09T07:22:59.146Z,91.50
2019-01-09T07:25:27.802Z,92.00
2019-01-09T07:27:56.477Z,92.00
2019-01-09T07:30:25.542Z,92.10
2019-01-09T07:32:54.266Z,92.20
2019-01-09T07:35:22.962Z,92.30
2019-01-09T07:37:51.921Z,92.60
2019-01-09T07:40:20.618Z,92.80
2019-01-09T07:42:49.331Z,93.00
2019-01-09T07:45:17.995Z,93.20
2019-01-09T07:47:46.694Z,93.30
2019-01-09T07:50:15.630Z,93.60
2019-01-09T07:52:44.352Z,92.70
2019-01-09T07:55:13.070Z,92.80
2019-01-09T07:57:41.829Z,92.70
2019-01-09T08:00:11.375Z,92.80
2019-01-09T08:02:40.005Z,92.70
2019-01-09T08:05:08.721Z,92.90
2019-01-09T08:07:37.407Z,92.90
2019-01-09T08:10:09.909Z,93.10
2019-01-09T08:12:38.573Z,93.30
2019-01-09T08:15:07.718Z,93.30
2019-01-09T08:17:36.416Z,93.50
2019-01-09T08:20:05.565Z,93.80
2019-01-09T08:22:34.206Z,93.80
2019-01-09T08:25:02.954Z,93.70
2019-01-09T08:27:31.578Z,93.70
2019-01-09T08:30:00.292Z,93.70
2019-01-09T08:32:29.511Z,93.70
2019-01-09T08:34:58.157Z,93.50
2019-01-09T08:37:26.873Z,93.50
2019-01-09T08:39:55.505Z,93.60
2019-01-09T08:42:24.382Z,93.80
2019-01-09T08:44:53.182Z,94.00
2019-01-09T08:47:21.869Z,94.20
2019-01-09T08:49:50.845Z,94.40
2019-01-09T08:52:19.825Z,94.40
2019-01-09T08:54:48.710Z,94.40
2019-01-09T08:57:17.353Z,94.50
2019-01-09T08:59:46.023Z,94.60
2019-01-09T09:02:14.730Z,94.70
2019-01-09T09:04:43.386Z,94.80
2019-01-09T09:07:12.066Z,94.80
2019-01-09T09:09:40.786Z,95.00
2019-01-09T09:12:09.441Z,95.20
2019-01-09T09:14:38.534Z,95.20
2019-01-09T09:17:07.185Z,95.20
2019-01-09T09:19:35.822Z,94.90
2019-01-09T09:22:05.393Z,95.20
2019-01-09T09:24:34.146Z,95.30
2019-01-09T09:27:02.835Z,95.10
2019-01-09T09:29:32.128Z,95.20
2019-01-09T09:32:00.879Z,95.00
2019-01-09T09:34:29.585Z,95.00
2019-01-09T09:36:58.253Z,95.00
2019-01-09T09:39:26.980Z,95.10
2019-01-09T09:41:55.622Z,94.90
2019-01-09T09:44:24.306Z,94.90
2019-01-09T09:46:53.010Z,95.20
2019-01-09T09:49:21.675Z,95.20
2019-01-09T09:51:50.386Z,95.30
2019-01-09T09:54:19.051Z,95.30
2019-01-09T09:56:47.725Z,95.60
2019-01-09T09:59:16.439Z,95.50
2019-01-09T10:01:45.146Z,95.30
2019-01-09T10:04:14.138Z,95.30
2019-01-09T10:06:42.790Z,95.30
2019-01-09T10:09:11.525Z,95.20
2019-01-09T10:11:40.169Z,95.20
2019-01-09T10:14:08.845Z,95.00
2019-01-09T10:16:37.510Z,95.20
2019-01-09T10:19:06.207Z,94.80
2019-01-09T10:21:34.890Z,94.40
2019-01-09T10:24:03.602Z,94.10
2019-01-09T10:26:32.253Z,94.40
2019-01-09T10:29:00.974Z,93.70
2019-01-09T10:31:29.705Z,93.10
2019-01-09T10:33:58.583Z,92.80
2019-01-09T10:36:27.241Z,92.80
2019-01-09T10:38:56.021Z,92.90
2019-01-09T10:41:24.710Z,93.10
2019-01-09T10:43:53.401Z,93.20
2019-01-09T10:46:22.067Z,93.10
2019-01-09T10:48:50.733Z,93.50
2019-01-09T10:51:19.494Z,93.70
2019-01-09T10:53:48.222Z,93.40
2019-01-09T10:56:16.895Z,93.20
2019-01-09T10:58:45.610Z,92.60
2019-01-09T11:01:14.301Z,92.30
2019-01-09T11:03:42.952Z,92.20
2019-01-09T11:06:11.672Z,91.70
2019-01-09T11:08:46.904Z,91.50
2019-01-09T11:11:10.746Z,91.30
2019-01-09T11:13:39.446Z,91.20
2019-01-09T11:16:08.123Z,91.30
2019-01-09T11:18:36.846Z,91.00
2019-01-09T11:21:05.538Z,90.70
2019-01-09T11:23:34.173Z,90.40
2019-01-09T11:26:02.885Z,90.70
2019-01-09T11:28:31.814Z,90.40
2019-01-09T11:31:00.463Z,90.10
2019-01-09T11:33:29.121Z,90.10
2019-01-09T11:35:57.806Z,90.30
2019-01-09T11:38:26.533Z,90.20
2019-01-09T11:40:55.185Z,90.60
2019-01-09T11:43:23.915Z,90.70
2019-01-09T11:45:52.546Z,90.70
2019-01-09T11:48:21.221Z,90.80
2019-01-09T11:50:50.198Z,90.50
2019-01-09T11:53:18.918Z,90.70
2019-01-09T11:55:47.641Z,91.00
2019-01-09T11:58:16.292Z,91.30
2019-01-09T12:00:44.970Z,91.90
2019-01-09T12:03:13.682Z,92.20
2019-01-09T12:05:42.342Z,92.30
2019-01-09T12:08:11.066Z,92.20
2019-01-09T12:10:39.709Z,91.90
2019-01-09T12:13:08.410Z,91.50
2019-01-09T12:15:37.382Z,91.10
2019-01-09T12:18:05.986Z,91.20
2019-01-09T12:20:34.678Z,91.50
2019-01-09T12:23:04.394Z,91.80
2019-01-09T12:25:33.325Z,92.10
2019-01-09T12:28:02.238Z,91.70
2019-01-09T12:30:31.048Z,91.90
2019-01-09T12:32:59.849Z,91.80
2019-01-09T12:35:29.014Z,92.50
2019-01-09T12:37:58.065Z,92.50
2019-01-09T12:40:26.723Z,92.70
2019-01-09T12:42:55.462Z,92.60
2019-01-09T12:45:24.235Z,92.70
2019-01-09T12:47:52.862Z,92.30
2019-01-09T12:50:23.342Z,92.50
2019-01-09T12:52:52.786Z,92.60
2019-01-09T12:55:21.475Z,92.40
2019-01-09T12:57:50.191Z,92.30
2019-01-09T13:00:26.911Z,92.30
2019-01-09T13:02:55.649Z,92.50
2019-01-09T13:05:24.315Z,92.40
2019-01-09T13:07:53.001Z,92.60
2019-01-09T13:10:21.706Z,92.60
2019-01-09T13:12:50.376Z,92.50
2019-01-09T13:15:19.429Z,92.70
2019-01-09T13:17:48.151Z,92.90
2019-01-09T13:20:16.886Z,93.20
2019-01-09T13:22:45.564Z,93.50
2019-01-09T13:25:15.694Z,93.80
2019-01-09T13:27:44.401Z,93.90
2019-01-09T13:30:17.862Z,94.10
2019-01-09T13:32:46.518Z,94.10
2019-01-09T13:35:17.045Z,93.90
2019-01-09T13:37:45.650Z,93.90
2019-01-09T13:40:16.133Z,93.90
2019-01-09T13:42:45.076Z,93.80
2019-01-09T13:45:15.836Z,93.90
2019-01-09T13:47:44.798Z,94.00
2019-01-09T13:50:13.557Z,94.10
2019-01-09T13:52:42.271Z,94.10
2019-01-09T13:55:11.950Z,94.30
2019-01-09T13:57:40.945Z,94.60
2019-01-09T14:00:12.838Z,94.80
2019-01-09T14:02:41.518Z,94.90
2019-01-09T14:05:10.245Z,95.10
2019-01-09T14:07:39.218Z,95.20
2019-01-09T14:10:11.037Z,95.20
2019-01-09T14:12:39.832Z,95.30
2019-01-09T14:15:10.852Z,95.20
2019-01-09T14:20:16.914Z,95.30
2019-01-09T14:22:46.786Z,95.40
2019-01-09T14:25:15.858Z,95.50
2019-01-09T14:27:44.806Z,95.50
2019-01-09T14:30:21.323Z,95.50
2019-01-09T14:32:50.020Z,95.50
2019-01-09T14:35:18.710Z,95.50
2019-01-09T14:37:47.391Z,95.60
2019-01-09T14:40:16.141Z,95.80
2019-01-09T14:42:44.846Z,96.10
2019-01-09T14:45:13.862Z,96.00
2019-01-09T14:47:42.800Z,96.20
2019-01-09T14:50:16.997Z,96.30
2019-01-09T14:52:45.750Z,96.20
2019-01-09T14:55:14.614Z,96.10
2019-01-09T14:57:43.377Z,96.20
2019-01-09T15:00:17.986Z,96.20
2019-01-09T15:02:46.704Z,96.10
2019-01-09T15:05:15.431Z,96.00
2019-01-09T15:07:44.330Z,96.10
2019-01-09T15:10:16.270Z,96.30
2019-01-09T15:12:44.945Z,96.40
2019-01-09T15:15:14.521Z,96.40
2019-01-09T15:17:43.226Z,96.50
2019-01-09T15:20:13.514Z,96.50
2019-01-09T15:22:42.502Z,96.70
2019-01-09T15:25:11.352Z,96.80
2019-01-09T15:27:40.736Z,97.10
2019-01-09T15:30:23.957Z,97.10
2019-01-09T15:32:52.697Z,97.20
2019-01-09T15:35:21.327Z,97.20
2019-01-09T15:37:50.010Z,97.20
2019-01-09T15:40:23.827Z,97.20
2019-01-09T15:42:52.562Z,97.20
2019-01-09T15:45:21.254Z,97.10
2019-01-09T15:47:49.903Z,97.10
2019-01-09T15:50:19.412Z,97.20
2019-01-09T15:52:48.090Z,97.20
2019-01-09T15:55:16.921Z,97.20
2019-01-09T15:57:45.737Z,97.10
2019-01-09T16:00:38.087Z,97.20
2019-01-09T16:03:06.890Z,97.10
2019-01-09T16:05:35.555Z,97.30
2019-01-09T16:08:04.274Z,97.30
2019-01-09T16:10:33.090Z,97.20
2019-01-09T16:13:01.817Z,97.20
2019-01-09T16:15:30.586Z,97.30
2019-01-09T16:17:59.282Z,97.20
2019-01-09T16:20:27.974Z,97.20
2019-01-09T16:22:56.706Z,97.30
2019-01-09T16:25:25.391Z,97.30
2019-01-09T16:27:54.051Z,97.40
2019-01-09T16:30:44.197Z,97.40
2019-01-09T16:33:12.911Z,97.40
2019-01-09T16:35:41.602Z,97.40
2019-01-09T16:38:10.289Z,97.40
2019-01-09T16:40:38.957Z,97.50
2019-01-09T16:43:07.657Z,97.50
2019-01-09T16:45:36.354Z,97.50
2019-01-09T16:48:05.037Z,97.60
2019-01-09T16:50:33.738Z,97.60
2019-01-09T16:53:02.674Z,97.50
2019-01-09T16:55:32.227Z,97.50
2019-01-09T16:58:00.899Z,97.30
2019-01-09T17:00:30.185Z,97.30
2019-01-09T17:02:58.862Z,97.30
2019-01-09T17:05:27.713Z,97.40
2019-01-09T17:07:56.370Z,97.50
2019-01-09T17:10:32.146Z,97.60
2019-01-09T17:12:55.466Z,97.60
2019-01-09T17:15:24.145Z,97.60
2019-01-09T17:17:52.841Z,97.70
2019-01-09T17:20:21.593Z,97.60
2019-01-09T17:22:50.294Z,97.60
2019-01-09T17:25:18.995Z,97.80
2019-01-09T17:27:47.662Z,97.70
2019-01-09T17:30:22.002Z,97.60
2019-01-09T17:32:50.693Z,97.70
2019-01-09T17:35:19.351Z,97.70
2019-01-09T17:37:48.077Z,97.80
2019-01-09T17:40:16.874Z,97.80
2019-01-09T17:42:45.530Z,97.70
2019-01-09T17:45:14.289Z,97.60
2019-01-09T17:47:42.992Z,97.70
2019-01-09T17:50:18.357Z,97.70
2019-01-09T17:52:47.034Z,97.70
2019-01-09T17:55:15.750Z,97.70
2019-01-09T17:57:44.452Z,97.90
2019-01-09T18:00:16.130Z,97.80
2019-01-09T18:02:45.118Z,97.90
2019-01-09T18:05:14.365Z,98.00
2019-01-09T18:07:43.030Z,98.10
2019-01-09T18:10:15.118Z,98.00
2019-01-09T18:12:44.006Z,98.10
2019-01-09T18:15:13.858Z,98.10
2019-01-09T18:17:42.565Z,98.10
2019-01-09T18:20:12.662Z,98.10
2019-01-09T18:22:41.376Z,98.10
2019-01-09T18:25:12.777Z,98.00
2019-01-09T18:27:41.828Z,98.00
2019-01-09T18:30:22.026Z,98.00
2019-01-09T18:33:01.898Z,97.90
2019-01-09T18:36:18.109Z,98.10
2019-01-09T18:39:37.366Z,98.00
2019-01-09T18:42:56.601Z,97.90
2019-01-09T18:45:53.099Z,97.90
2019-01-09T18:49:01.802Z,98.00
2019-01-09T18:52:30.347Z,98.00
2019-01-09T18:54:59.076Z,98.00
2019-01-09T18:57:28.106Z,98.20
2019-01-09T18:59:56.805Z,98.20
2019-01-09T19:02:25.505Z,98.30
2019-01-09T19:04:54.194Z,98.30
2019-01-09T19:07:22.833Z,98.30
2019-01-09T19:09:51.534Z,98.30
2019-01-09T19:12:20.193Z,98.20
2019-01-09T19:14:49.025Z,98.20
2019-01-09T19:17:18.171Z,98.30
2019-01-09T19:19:46.876Z,98.40
2019-01-09T19:22:15.641Z,98.40
2019-01-09T19:24:44.410Z,98.40
2019-01-09T19:27:13.346Z,98.40
2019-01-09T19:29:42.057Z,98.40
2019-01-09T19:32:10.726Z,98.20
2019-01-09T19:34:39.529Z,98.30
2019-01-09T19:37:08.258Z,98.30
2019-01-09T19:39:36.998Z,98.20
2019-01-09T19:42:05.669Z,98.50
2019-01-09T19:44:34.365Z,98.10
2019-01-09T19:47:03.113Z,98.20
2019-01-09T19:49:31.809Z,98.10
2019-01-09T19:52:01.338Z,98.30
2019-01-09T19:54:30.045Z,98.80
2019-01-09T19:56:59.003Z,98.50
2019-01-09T19:59:29.825Z,98.40
2019-01-09T20:01:58.622Z,98.60
2019-01-09T20:04:27.318Z,98.50
2019-01-09T20:06:56.327Z,98.50
2019-01-09T20:09:25.155Z,98.50
2019-01-09T20:11:53.875Z,98.90
2019-01-09T20:14:22.558Z,98.50
2019-01-09T20:16:51.253Z,98.40
2019-01-09T20:19:19.982Z,98.40
2019-01-09T20:21:48.607Z,98.40
2019-01-09T20:24:19.419Z,98.40
2019-01-09T20:26:48.011Z,98.40
2019-01-09T20:29:17.074Z,98.40
2019-01-09T20:31:46.790Z,98.40
2019-01-09T20:34:15.645Z,98.30
2019-01-09T20:36:44.681Z,98.40
2019-01-09T20:39:13.451Z,98.30
2019-01-09T20:41:43.193Z,98.20
2019-01-09T20:44:11.948Z,98.30
2019-01-09T20:46:40.673Z,98.30
2019-01-09T20:49:09.438Z,98.20
2019-01-09T20:51:38.137Z,98.20
2019-01-09T20:54:06.849Z,98.30
2019-01-09T20:56:35.691Z,98.30
2019-01-09T20:59:04.373Z,98.40
2019-01-09T21:01:33.115Z,98.40
2019-01-09T21:04:01.801Z,98.30
2019-01-09T21:06:30.653Z,98.30
2019-01-09T21:09:00.213Z,98.30
2019-01-09T21:11:28.977Z,98.20
2019-01-09T21:13:57.699Z,98.20
2019-01-09T21:16:27.093Z,98.30
2019-01-09T21:18:55.966Z,98.20
2019-01-09T21:21:24.706Z,98.20
2019-01-09T21:23:53.322Z,98.30
2019-01-09T21:26:22.303Z,98.20
2019-01-09T21:28:51.017Z,98.00
2019-01-09T21:31:19.695Z,98.00
2019-01-09T21:33:48.385Z,97.90
2019-01-09T21:36:17.050Z,97.90
2019-01-09T21:38:45.772Z,97.80
2019-01-09T21:41:14.427Z,97.80
2019-01-09T21:43:43.109Z,97.70
2019-01-09T21:46:11.823Z,97.40
2019-01-09T21:48:40.477Z,97.40
2019-01-09T21:51:09.270Z,97.10
2019-01-09T21:53:37.954Z,97.00
2019-01-09T21:56:06.637Z,96.90
2019-01-09T21:58:35.343Z,96.60
2019-01-09T22:01:04.097Z,96.30
2019-01-09T22:03:33.237Z,96.50
2019-01-09T22:06:01.889Z,96.60
2019-01-09T22:08:30.581Z,96.30
2019-01-09T22:10:59.579Z,96.60
2019-01-09T22:13:29.287Z,96.60
2019-01-09T22:15:57.995Z,96.40
2019-01-09T22:18:26.649Z,96.40
2019-01-09T22:20:55.329Z,96.40
2019-01-09T22:23:24.041Z,96.40
2019-01-09T22:25:52.706Z,96.50
2019-01-09T22:28:21.418Z,96.30
2019-01-09T22:30:50.091Z,96.20
2019-01-09T22:33:18.784Z,96.30
2019-01-09T22:35:47.474Z,96.30
2019-01-09T22:38:16.137Z,96.20
2019-01-09T22:40:44.845Z,96.10
2019-01-09T22:43:13.505Z,96.30
2019-01-09T22:45:42.261Z,96.40
2019-01-09T22:48:10.906Z,96.30
2019-01-09T22:50:39.574Z,96.30
2019-01-09T22:53:08.279Z,96.40
2019-01-09T22:55:36.929Z,96.20
2019-01-09T22:58:05.621Z,96.10
2019-01-09T23:01:12.114Z,96.00
2019-01-09T23:03:40.770Z,96.00
2019-01-09T23:06:09.513Z,96.10
2019-01-09T23:08:38.141Z,96.10
2019-01-09T23:11:06.854Z,95.80
2019-01-09T23:13:35.547Z,96.10
2019-01-09T23:16:04.595Z,96.20
2019-01-09T23:18:33.303Z,96.10
2019-01-09T23:21:02.002Z,96.30
2019-01-09T23:23:30.605Z,96.30
2019-01-09T23:25:59.248Z,96.20
2019-01-09T23:28:27.965Z,96.30
2019-01-09T23:30:56.625Z,96.30
2019-01-09T23:33:25.310Z,96.30
2019-01-09T23:35:54.013Z,96.20
2019-01-09T23:38:22.696Z,96.20
2019-01-09T23:40:51.370Z,96.00
2019-01-09T23:43:20.088Z,96.10
2019-01-09T23:45:48.734Z,96.10
2019-01-09T23:48:17.429Z,96.00
2019-01-09T23:50:46.133Z,96.30
2019-01-09T23:53:14.797Z,96.10
2019-01-09T23:55:43.478Z,96.10
2019-01-09T23:58:12.443Z,96.10
